Pryor, Colorado
Current Conditions -  °F | °C
As of 4:32 PM on Monday 20 Oct 2014 (Local Time) from KVTP Reporting Station
Overcast Overcast  
Wind Chill: 50°   Ceiling: 9500
Heat Index: 50°   Visibility: 10mi
Dew Point: 32°   Wind: 0mph
Humidity: 50%   Direction: NA
Pressure: 30.38"   Gusts: NA
Location:  37.6936°N, 104.772°W
Report Text: KVTP 202232Z AUTO 00000KT 10SM SCT060 SCT070 OVC095 10/00 A3038 RMK AO2 LTG DSNT S
Loading
Personal Weather Stations






























Interactive Weather Map
Tropical Storm Tracking
New forecast layout! Learn more

10-Day Weather Forecast

Advertisements
Track Severe Weather on mobile